sensor_id;sensor_type;location;lat;lon;timestamp;temperature;humidity
19152;DHT22;9708;53.114;9.388;2023-04-03T00:01:25;1.00;99.90
19152;DHT22;9708;53.114;9.388;2023-04-03T00:03:54;0.90;99.90
19152;DHT22;9708;53.114;9.388;2023-04-03T00:06:21;1.00;99.90
19152;DHT22;9708;53.114;9.388;2023-04-03T00:08:48;1.00;99.90
19152;DHT22;9708;53.114;9.388;2023-04-03T00:11:16;0.90;99.90
19152;DHT22;9708;53.114;9.388;2023-04-03T00:13:42;0.90;99.90
19152;DHT22;9708;53.114;9.388;2023-04-03T00:16:10;0.90;99.90
19152;DHT22;9708;53.114;9.388;2023-04-03T00:18:38;0.90;99.90
19152;DHT22;9708;53.114;9.388;2023-04-03T00:21:07;0.90;99.90
19152;DHT22;9708;53.114;9.388;2023-04-03T00:23:35;0.80;99.90
19152;DHT22;9708;53.114;9.388;2023-04-03T00:26:02;0.80;99.90
19152;DHT22;9708;53.114;9.388;2023-04-03T00:28:28;0.90;99.90
19152;DHT22;9708;53.114;9.388;2023-04-03T00:30:55;0.80;99.90
19152;DHT22;9708;53.114;9.388;2023-04-03T00:33:22;0.90;99.90
19152;DHT22;9708;53.114;9.388;2023-04-03T00:35:50;0.90;99.90
19152;DHT22;9708;53.114;9.388;2023-04-03T00:38:18;1.00;99.90
19152;DHT22;9708;53.114;9.388;2023-04-03T00:40:47;1.00;99.90
19152;DHT22;9708;53.114;9.388;2023-04-03T00:43:16;0.90;99.90
19152;DHT22;9708;53.114;9.388;2023-04-03T00:45:44;1.00;99.90
19152;DHT22;9708;53.114;9.388;2023-04-03T00:48:16;0.90;99.90
19152;DHT22;9708;53.114;9.388;2023-04-03T00:50:44;0.80;99.90
19152;DHT22;9708;53.114;9.388;2023-04-03T00:53:13;0.80;99.90
19152;DHT22;9708;53.114;9.388;2023-04-03T00:55:43;0.80;99.90
19152;DHT22;9708;53.114;9.388;2023-04-03T00:58:10;0.70;99.90
19152;DHT22;9708;53.114;9.388;2023-04-03T01:00:40;0.80;99.90
19152;DHT22;9708;53.114;9.388;2023-04-03T01:03:09;0.80;99.90
19152;DHT22;9708;53.114;9.388;2023-04-03T01:05:36;0.80;99.90
19152;DHT22;9708;53.114;9.388;2023-04-03T01:08:03;0.80;99.90
19152;DHT22;9708;53.114;9.388;2023-04-03T01:10:30;0.70;99.90
19152;DHT22;9708;53.114;9.388;2023-04-03T01:13:00;0.70;99.90
19152;DHT22;9708;53.114;9.388;2023-04-03T01:15:28;0.70;99.90
19152;DHT22;9708;53.114;9.388;2023-04-03T01:17:56;0.70;99.90
19152;DHT22;9708;53.114;9.388;2023-04-03T01:23:52;0.60;99.90
19152;DHT22;9708;53.114;9.388;2023-04-03T01:26:21;0.50;99.90
19152;DHT22;9708;53.114;9.388;2023-04-03T01:28:49;0.50;99.90
19152;DHT22;9708;53.114;9.388;2023-04-03T01:31:22;0.50;99.90
19152;DHT22;9708;53.114;9.388;2023-04-03T01:33:51;0.60;99.90
19152;DHT22;9708;53.114;9.388;2023-04-03T01:36:20;0.70;99.90
19152;DHT22;9708;53.114;9.388;2023-04-03T01:38:47;0.60;99.90
19152;DHT22;9708;53.114;9.388;2023-04-03T01:41:15;0.50;99.90
19152;DHT22;9708;53.114;9.388;2023-04-03T01:43:42;0.50;99.90
19152;DHT22;9708;53.114;9.388;2023-04-03T01:46:09;0.50;99.90
19152;DHT22;9708;53.114;9.388;2023-04-03T01:48:36;0.50;99.90
19152;DHT22;9708;53.114;9.388;2023-04-03T01:51:04;0.40;99.90
19152;DHT22;9708;53.114;9.388;2023-04-03T01:53:31;0.40;99.90
19152;DHT22;9708;53.114;9.388;2023-04-03T01:55:58;0.30;99.90
19152;DHT22;9708;53.114;9.388;2023-04-03T01:58:25;0.30;99.90
19152;DHT22;9708;53.114;9.388;2023-04-03T02:00:52;0.30;99.90
19152;DHT22;9708;53.114;9.388;2023-04-03T02:03:19;0.40;99.90
19152;DHT22;9708;53.114;9.388;2023-04-03T02:05:46;0.30;99.90
19152;DHT22;9708;53.114;9.388;2023-04-03T02:08:15;0.20;99.90
19152;DHT22;9708;53.114;9.388;2023-04-03T02:10:43;0.20;99.90
19152;DHT22;9708;53.114;9.388;2023-04-03T02:13:10;0.30;99.90
19152;DHT22;9708;53.114;9.388;2023-04-03T02:15:38;0.30;99.90
19152;DHT22;9708;53.114;9.388;2023-04-03T02:18:05;0.30;99.90
19152;DHT22;9708;53.114;9.388;2023-04-03T02:20:32;0.20;99.90
19152;DHT22;9708;53.114;9.388;2023-04-03T02:22:58;0.20;99.90
19152;DHT22;9708;53.114;9.388;2023-04-03T02:25:27;0.20;99.90
19152;DHT22;9708;53.114;9.388;2023-04-03T02:27:53;0.20;99.90
19152;DHT22;9708;53.114;9.388;2023-04-03T02:30:20;0.20;99.90
19152;DHT22;9708;53.114;9.388;2023-04-03T02:32:47;0.10;99.90
19152;DHT22;9708;53.114;9.388;2023-04-03T02:35:14;0.00;99.90
19152;DHT22;9708;53.114;9.388;2023-04-03T02:37:41;0.00;99.90
19152;DHT22;9708;53.114;9.388;2023-04-03T02:40:08;0.00;99.90
19152;DHT22;9708;53.114;9.388;2023-04-03T02:42:38;-0.10;99.90
19152;DHT22;9708;53.114;9.388;2023-04-03T02:45:06;-0.10;99.90
19152;DHT22;9708;53.114;9.388;2023-04-03T02:47:33;-0.10;99.90
19152;DHT22;9708;53.114;9.388;2023-04-03T02:49:59;-0.10;99.90
19152;DHT22;9708;53.114;9.388;2023-04-03T02:52:26;-0.10;99.90
19152;DHT22;9708;53.114;9.388;2023-04-03T02:54:53;-0.20;99.90
19152;DHT22;9708;53.114;9.388;2023-04-03T02:57:20;-0.20;99.90
19152;DHT22;9708;53.114;9.388;2023-04-03T02:59:48;-0.10;99.90
19152;DHT22;9708;53.114;9.388;2023-04-03T03:02:15;0.00;99.90
19152;DHT22;9708;53.114;9.388;2023-04-03T03:04:41;0.00;99.90
19152;DHT22;9708;53.114;9.388;2023-04-03T03:07:09;-0.20;99.90
19152;DHT22;9708;53.114;9.388;2023-04-03T03:09:36;-0.20;99.90
19152;DHT22;9708;53.114;9.388;2023-04-03T03:12:03;-0.20;99.90
19152;DHT22;9708;53.114;9.388;2023-04-03T03:14:30;-0.20;99.90
19152;DHT22;9708;53.114;9.388;2023-04-03T03:16:58;-0.30;99.90
19152;DHT22;9708;53.114;9.388;2023-04-03T03:19:25;-0.30;99.90
19152;DHT22;9708;53.114;9.388;2023-04-03T03:21:51;-0.30;99.90
19152;DHT22;9708;53.114;9.388;2023-04-03T03:24:18;-0.30;99.90
19152;DHT22;9708;53.114;9.388;2023-04-03T03:26:45;-0.40;99.90
19152;DHT22;9708;53.114;9.388;2023-04-03T03:29:12;-0.40;99.90
19152;DHT22;9708;53.114;9.388;2023-04-03T03:31:38;-0.30;99.90
19152;DHT22;9708;53.114;9.388;2023-04-03T03:34:07;-0.40;99.90
19152;DHT22;9708;53.114;9.388;2023-04-03T03:36:33;-0.30;99.90
19152;DHT22;9708;53.114;9.388;2023-04-03T03:39:00;-0.40;99.90
19152;DHT22;9708;53.114;9.388;2023-04-03T03:41:27;-0.50;99.90
19152;DHT22;9708;53.114;9.388;2023-04-03T03:43:54;-0.50;99.90
19152;DHT22;9708;53.114;9.388;2023-04-03T03:46:21;-0.50;99.90
19152;DHT22;9708;53.114;9.388;2023-04-03T03:48:47;-0.50;99.90
19152;DHT22;9708;53.114;9.388;2023-04-03T03:51:16;-0.50;99.90
19152;DHT22;9708;53.114;9.388;2023-04-03T03:53:42;-0.50;99.90
19152;DHT22;9708;53.114;9.388;2023-04-03T03:56:09;-0.50;99.90
19152;DHT22;9708;53.114;9.388;2023-04-03T03:58:36;-0.50;99.90
19152;DHT22;9708;53.114;9.388;2023-04-03T04:01:04;-0.50;99.90
19152;DHT22;9708;53.114;9.388;2023-04-03T04:03:32;-0.50;99.90
19152;DHT22;9708;53.114;9.388;2023-04-03T04:05:58;-0.50;99.90
19152;DHT22;9708;53.114;9.388;2023-04-03T04:08:27;-0.50;99.90
19152;DHT22;9708;53.114;9.388;2023-04-03T04:10:53;-0.40;99.90
19152;DHT22;9708;53.114;9.388;2023-04-03T04:13:21;-0.40;99.90
19152;DHT22;9708;53.114;9.388;2023-04-03T04:15:47;-0.40;99.90
19152;DHT22;9708;53.114;9.388;2023-04-03T04:18:14;-0.60;99.90
19152;DHT22;9708;53.114;9.388;2023-04-03T04:20:41;-0.60;99.90
19152;DHT22;9708;53.114;9.388;2023-04-03T04:23:08;-0.60;99.90
19152;DHT22;9708;53.114;9.388;2023-04-03T04:25:36;-0.60;99.90
19152;DHT22;9708;53.114;9.388;2023-04-03T04:28:03;-0.60;99.90
19152;DHT22;9708;53.114;9.388;2023-04-03T04:30:30;-0.60;99.90
19152;DHT22;9708;53.114;9.388;2023-04-03T04:32:57;-0.50;99.90
19152;DHT22;9708;53.114;9.388;2023-04-03T04:35:24;-0.50;99.90
19152;DHT22;9708;53.114;9.388;2023-04-03T04:37:51;-0.50;99.90
19152;DHT22;9708;53.114;9.388;2023-04-03T04:40:18;-0.50;99.90
19152;DHT22;9708;53.114;9.388;2023-04-03T04:42:46;-0.50;99.90
19152;DHT22;9708;53.114;9.388;2023-04-03T04:45:13;-0.50;99.90
19152;DHT22;9708;53.114;9.388;2023-04-03T04:47:40;-0.50;99.90
19152;DHT22;9708;53.114;9.388;2023-04-03T04:50:07;-0.60;99.90
19152;DHT22;9708;53.114;9.388;2023-04-03T04:52:35;-0.60;99.90
19152;DHT22;9708;53.114;9.388;2023-04-03T04:55:02;-0.60;99.90
19152;DHT22;9708;53.114;9.388;2023-04-03T04:57:29;-0.60;99.90
19152;DHT22;9708;53.114;9.388;2023-04-03T04:59:57;-0.60;99.90
19152;DHT22;9708;53.114;9.388;2023-04-03T05:02:24;-0.60;99.90
19152;DHT22;9708;53.114;9.388;2023-04-03T05:04:50;-0.50;99.90
19152;DHT22;9708;53.114;9.388;2023-04-03T05:07:18;-0.50;99.90
19152;DHT22;9708;53.114;9.388;2023-04-03T05:09:44;-0.60;99.90
19152;DHT22;9708;53.114;9.388;2023-04-03T05:12:11;-0.60;99.90
19152;DHT22;9708;53.114;9.388;2023-04-03T05:14:38;-0.60;99.90
19152;DHT22;9708;53.114;9.388;2023-04-03T05:17:06;-0.60;99.90
19152;DHT22;9708;53.114;9.388;2023-04-03T05:19:33;-0.50;99.90
19152;DHT22;9708;53.114;9.388;2023-04-03T05:22:00;-0.50;99.90
19152;DHT22;9708;53.114;9.388;2023-04-03T05:24:26;-0.40;99.90
19152;DHT22;9708;53.114;9.388;2023-04-03T05:26:53;-0.30;99.90
19152;DHT22;9708;53.114;9.388;2023-04-03T05:29:20;-0.40;99.90
19152;DHT22;9708;53.114;9.388;2023-04-03T05:31:49;-0.40;99.90
19152;DHT22;9708;53.114;9.388;2023-04-03T05:34:17;-0.40;99.90
19152;DHT22;9708;53.114;9.388;2023-04-03T05:36:44;-0.30;99.90
19152;DHT22;9708;53.114;9.388;2023-04-03T05:39:11;-0.20;99.90
19152;DHT22;9708;53.114;9.388;2023-04-03T05:41:38;-0.10;99.90
19152;DHT22;9708;53.114;9.388;2023-04-03T05:44:05;0.00;99.90
19152;DHT22;9708;53.114;9.388;2023-04-03T05:46:31;0.10;99.90
19152;DHT22;9708;53.114;9.388;2023-04-03T05:48:58;0.20;99.90
19152;DHT22;9708;53.114;9.388;2023-04-03T05:51:30;0.40;99.90
19152;DHT22;9708;53.114;9.388;2023-04-03T05:54:03;0.40;99.90
19152;DHT22;9708;53.114;9.388;2023-04-03T05:56:32;0.50;99.90
19152;DHT22;9708;53.114;9.388;2023-04-03T05:58:59;0.50;99.90
19152;DHT22;9708;53.114;9.388;2023-04-03T06:01:26;0.60;99.90
19152;DHT22;9708;53.114;9.388;2023-04-03T06:03:53;0.70;99.90
19152;DHT22;9708;53.114;9.388;2023-04-03T06:06:21;0.70;99.90
19152;DHT22;9708;53.114;9.388;2023-04-03T06:08:49;0.90;99.90
19152;DHT22;9708;53.114;9.388;2023-04-03T06:11:16;0.90;99.90
19152;DHT22;9708;53.114;9.388;2023-04-03T06:13:42;0.90;99.90
19152;DHT22;9708;53.114;9.388;2023-04-03T06:16:12;1.20;99.90
19152;DHT22;9708;53.114;9.388;2023-04-03T06:18:40;1.20;99.90
19152;DHT22;9708;53.114;9.388;2023-04-03T06:21:07;1.30;99.90
19152;DHT22;9708;53.114;9.388;2023-04-03T06:23:34;1.40;99.90
19152;DHT22;9708;53.114;9.388;2023-04-03T06:26:03;1.60;99.90
19152;DHT22;9708;53.114;9.388;2023-04-03T06:28:31;2.00;99.90
19152;DHT22;9708;53.114;9.388;2023-04-03T06:30:57;3.10;99.90
19152;DHT22;9708;53.114;9.388;2023-04-03T06:33:24;4.80;99.90
19152;DHT22;9708;53.114;9.388;2023-04-03T06:35:56;6.00;99.90
19152;DHT22;9708;53.114;9.388;2023-04-03T06:38:23;6.80;99.90
19152;DHT22;9708;53.114;9.388;2023-04-03T06:40:50;7.40;99.90
19152;DHT22;9708;53.114;9.388;2023-04-03T06:43:19;8.80;99.90
19152;DHT22;9708;53.114;9.388;2023-04-03T06:45:46;9.30;99.90
19152;DHT22;9708;53.114;9.388;2023-04-03T06:48:13;9.60;99.90
19152;DHT22;9708;53.114;9.388;2023-04-03T06:50:39;10.50;99.90
19152;DHT22;9708;53.114;9.388;2023-04-03T06:53:06;10.50;99.90
19152;DHT22;9708;53.114;9.388;2023-04-03T06:55:33;10.60;99.90
19152;DHT22;9708;53.114;9.388;2023-04-03T06:58:00;10.90;99.90
19152;DHT22;9708;53.114;9.388;2023-04-03T07:00:28;10.40;99.90
19152;DHT22;9708;53.114;9.388;2023-04-03T07:02:55;9.80;99.90
19152;DHT22;9708;53.114;9.388;2023-04-03T07:05:23;10.10;99.90
19152;DHT22;9708;53.114;9.388;2023-04-03T07:07:50;10.80;99.90
19152;DHT22;9708;53.114;9.388;2023-04-03T07:10:17;11.30;99.90
19152;DHT22;9708;53.114;9.388;2023-04-03T07:12:44;11.20;99.90
19152;DHT22;9708;53.114;9.388;2023-04-03T07:15:11;11.00;99.90
19152;DHT22;9708;53.114;9.388;2023-04-03T07:17:39;11.10;99.90
19152;DHT22;9708;53.114;9.388;2023-04-03T07:20:08;11.20;99.90
19152;DHT22;9708;53.114;9.388;2023-04-03T07:22:35;10.70;99.90
19152;DHT22;9708;53.114;9.388;2023-04-03T07:25:02;10.10;99.90
19152;DHT22;9708;53.114;9.388;2023-04-03T07:27:28;10.60;99.90
19152;DHT22;9708;53.114;9.388;2023-04-03T07:29:56;10.80;99.90
19152;DHT22;9708;53.114;9.388;2023-04-03T07:32:22;11.20;99.90
19152;DHT22;9708;53.114;9.388;2023-04-03T07:34:50;11.40;99.90
19152;DHT22;9708;53.114;9.388;2023-04-03T07:37:17;11.60;99.90
19152;DHT22;9708;53.114;9.388;2023-04-03T07:39:44;11.10;99.90
19152;DHT22;9708;53.114;9.388;2023-04-03T07:42:11;11.20;99.90
19152;DHT22;9708;53.114;9.388;2023-04-03T07:44:38;11.50;99.90
19152;DHT22;9708;53.114;9.388;2023-04-03T07:47:05;11.30;99.90
19152;DHT22;9708;53.114;9.388;2023-04-03T07:49:33;11.50;99.90
19152;DHT22;9708;53.114;9.388;2023-04-03T07:52:05;11.00;99.90
19152;DHT22;9708;53.114;9.388;2023-04-03T07:54:32;11.30;99.90
19152;DHT22;9708;53.114;9.388;2023-04-03T07:57:00;12.10;99.90
19152;DHT22;9708;53.114;9.388;2023-04-03T07:59:27;12.20;99.90
19152;DHT22;9708;53.114;9.388;2023-04-03T08:01:54;12.40;99.90
19152;DHT22;9708;53.114;9.388;2023-04-03T08:04:21;12.60;99.90
19152;DHT22;9708;53.114;9.388;2023-04-03T08:06:47;12.10;99.90
19152;DHT22;9708;53.114;9.388;2023-04-03T08:09:16;12.50;99.90
19152;DHT22;9708;53.114;9.388;2023-04-03T08:11:43;12.50;99.90
19152;DHT22;9708;53.114;9.388;2023-04-03T08:14:10;11.80;99.90
19152;DHT22;9708;53.114;9.388;2023-04-03T08:16:42;11.90;99.90
19152;DHT22;9708;53.114;9.388;2023-04-03T08:19:09;11.80;99.90
19152;DHT22;9708;53.114;9.388;2023-04-03T08:21:39;11.80;99.90
19152;DHT22;9708;53.114;9.388;2023-04-03T08:24:07;11.80;99.90
19152;DHT22;9708;53.114;9.388;2023-04-03T08:26:35;11.00;99.90
19152;DHT22;9708;53.114;9.388;2023-04-03T08:29:03;10.70;99.90
19152;DHT22;9708;53.114;9.388;2023-04-03T08:31:30;11.50;99.90
19152;DHT22;9708;53.114;9.388;2023-04-03T08:33:57;11.10;99.90
19152;DHT22;9708;53.114;9.388;2023-04-03T08:36:25;10.90;99.90
19152;DHT22;9708;53.114;9.388;2023-04-03T08:38:53;10.70;99.90
19152;DHT22;9708;53.114;9.388;2023-04-03T08:41:27;11.20;99.90
19152;DHT22;9708;53.114;9.388;2023-04-03T08:44:02;11.80;99.90
19152;DHT22;9708;53.114;9.388;2023-04-03T08:46:39;11.40;99.90
19152;DHT22;9708;53.114;9.388;2023-04-03T08:49:12;10.90;99.90
19152;DHT22;9708;53.114;9.388;2023-04-03T08:51:46;11.50;99.90
19152;DHT22;9708;53.114;9.388;2023-04-03T08:54:23;11.40;99.90
19152;DHT22;9708;53.114;9.388;2023-04-03T08:56:52;11.50;99.90
19152;DHT22;9708;53.114;9.388;2023-04-03T08:59:26;12.10;99.90
19152;DHT22;9708;53.114;9.388;2023-04-03T09:01:54;12.20;99.90
19152;DHT22;9708;53.114;9.388;2023-04-03T09:04:22;12.90;99.90
19152;DHT22;9708;53.114;9.388;2023-04-03T09:06:52;13.10;99.90
19152;DHT22;9708;53.114;9.388;2023-04-03T09:09:29;13.10;99.90
19152;DHT22;9708;53.114;9.388;2023-04-03T09:12:04;12.70;99.90
19152;DHT22;9708;53.114;9.388;2023-04-03T09:14:39;12.80;99.90
19152;DHT22;9708;53.114;9.388;2023-04-03T09:17:13;13.20;99.90
19152;DHT22;9708;53.114;9.388;2023-04-03T09:19:47;13.20;99.90
19152;DHT22;9708;53.114;9.388;2023-04-03T09:22:20;12.50;99.90
19152;DHT22;9708;53.114;9.388;2023-04-03T09:24:55;13.50;99.90
19152;DHT22;9708;53.114;9.388;2023-04-03T09:27:22;12.70;99.90
19152;DHT22;9708;53.114;9.388;2023-04-03T09:29:53;13.80;99.90
19152;DHT22;9708;53.114;9.388;2023-04-03T09:32:26;13.60;99.90
19152;DHT22;9708;53.114;9.388;2023-04-03T09:34:55;14.10;99.90
19152;DHT22;9708;53.114;9.388;2023-04-03T09:37:37;14.50;99.90
19152;DHT22;9708;53.114;9.388;2023-04-03T09:40:06;14.20;99.90
19152;DHT22;9708;53.114;9.388;2023-04-03T09:42:54;14.60;99.90
19152;DHT22;9708;53.114;9.388;2023-04-03T09:45:25;14.50;99.90
19152;DHT22;9708;53.114;9.388;2023-04-03T09:48:05;14.00;99.90
19152;DHT22;9708;53.114;9.388;2023-04-03T09:50:33;14.70;99.90
19152;DHT22;9708;53.114;9.388;2023-04-03T09:53:05;14.60;99.90
19152;DHT22;9708;53.114;9.388;2023-04-03T09:55:33;14.80;99.90
19152;DHT22;9708;53.114;9.388;2023-04-03T09:58:26;14.30;99.90
19152;DHT22;9708;53.114;9.388;2023-04-03T10:00:57;14.90;99.90
19152;DHT22;9708;53.114;9.388;2023-04-03T10:03:28;14.80;99.90
19152;DHT22;9708;53.114;9.388;2023-04-03T10:05:55;15.30;99.90
19152;DHT22;9708;53.114;9.388;2023-04-03T10:08:27;14.90;99.90
19152;DHT22;9708;53.114;9.388;2023-04-03T10:11:15;15.20;99.90
19152;DHT22;9708;53.114;9.388;2023-04-03T10:13:54;14.60;99.90
19152;DHT22;9708;53.114;9.388;2023-04-03T10:16:26;14.50;99.90
19152;DHT22;9708;53.114;9.388;2023-04-03T10:19:02;15.50;99.90
19152;DHT22;9708;53.114;9.388;2023-04-03T10:21:38;15.00;99.90
19152;DHT22;9708;53.114;9.388;2023-04-03T10:24:11;15.60;99.90
19152;DHT22;9708;53.114;9.388;2023-04-03T10:26:45;15.50;99.90
19152;DHT22;9708;53.114;9.388;2023-04-03T10:29:24;15.30;99.90
19152;DHT22;9708;53.114;9.388;2023-04-03T10:31:59;15.60;99.90
19152;DHT22;9708;53.114;9.388;2023-04-03T10:34:30;15.20;99.90
19152;DHT22;9708;53.114;9.388;2023-04-03T10:37:05;14.00;99.90
19152;DHT22;9708;53.114;9.388;2023-04-03T10:39:39;13.80;99.90
19152;DHT22;9708;53.114;9.388;2023-04-03T10:42:12;12.50;99.90
19152;DHT22;9708;53.114;9.388;2023-04-03T10:44:58;11.80;99.90
19152;DHT22;9708;53.114;9.388;2023-04-03T10:47:34;11.80;99.90
19152;DHT22;9708;53.114;9.388;2023-04-03T10:50:23;11.10;99.90
19152;DHT22;9708;53.114;9.388;2023-04-03T10:52:55;10.40;99.90
19152;DHT22;9708;53.114;9.388;2023-04-03T10:55:31;10.70;99.90
19152;DHT22;9708;53.114;9.388;2023-04-03T10:57:59;11.50;99.90
19152;DHT22;9708;53.114;9.388;2023-04-03T11:00:33;11.30;99.90
19152;DHT22;9708;53.114;9.388;2023-04-03T11:03:08;11.10;99.90
19152;DHT22;9708;53.114;9.388;2023-04-03T11:05:40;11.80;99.90
19152;DHT22;9708;53.114;9.388;2023-04-03T11:08:15;12.60;99.90
19152;DHT22;9708;53.114;9.388;2023-04-03T11:10:47;13.20;99.90
19152;DHT22;9708;53.114;9.388;2023-04-03T11:13:17;13.80;99.90
19152;DHT22;9708;53.114;9.388;2023-04-03T11:15:46;14.50;99.90
19152;DHT22;9708;53.114;9.388;2023-04-03T11:18:17;14.90;99.90
19152;DHT22;9708;53.114;9.388;2023-04-03T11:20:50;15.40;99.90
19152;DHT22;9708;53.114;9.388;2023-04-03T11:23:24;15.60;99.90
19152;DHT22;9708;53.114;9.388;2023-04-03T11:25:55;16.60;99.90
19152;DHT22;9708;53.114;9.388;2023-04-03T11:28:26;17.00;98.60
19152;DHT22;9708;53.114;9.388;2023-04-03T11:30:59;16.10;95.60
19152;DHT22;9708;53.114;9.388;2023-04-03T11:33:44;15.00;97.80
19152;DHT22;9708;53.114;9.388;2023-04-03T11:36:22;14.70;98.80
19152;DHT22;9708;53.114;9.388;2023-04-03T11:38:52;15.30;99.90
19152;DHT22;9708;53.114;9.388;2023-04-03T11:41:25;14.80;99.90
19152;DHT22;9708;53.114;9.388;2023-04-03T11:43:58;14.20;99.90
19152;DHT22;9708;53.114;9.388;2023-04-03T11:46:52;13.10;99.90
19152;DHT22;9708;53.114;9.388;2023-04-03T11:53:02;12.50;99.90
19152;DHT22;9708;53.114;9.388;2023-04-03T11:55:52;12.60;99.90
19152;DHT22;9708;53.114;9.388;2023-04-03T11:58:23;12.10;99.90
19152;DHT22;9708;53.114;9.388;2023-04-03T12:06:59;11.60;99.90
19152;DHT22;9708;53.114;9.388;2023-04-03T12:12:35;11.90;99.90
19152;DHT22;9708;53.114;9.388;2023-04-03T12:18:43;13.90;99.90
19152;DHT22;9708;53.114;9.388;2023-04-03T12:21:11;12.70;99.90
19152;DHT22;9708;53.114;9.388;2023-04-03T12:23:57;12.30;99.90
19152;DHT22;9708;53.114;9.388;2023-04-03T12:26:27;12.20;99.90
19152;DHT22;9708;53.114;9.388;2023-04-03T12:28:55;12.90;99.90
19152;DHT22;9708;53.114;9.388;2023-04-03T12:31:25;13.40;99.90
19152;DHT22;9708;53.114;9.388;2023-04-03T12:34:13;14.40;99.90
19152;DHT22;9708;53.114;9.388;2023-04-03T12:36:54;14.20;98.90
19152;DHT22;9708;53.114;9.388;2023-04-03T12:39:42;13.20;99.50
19152;DHT22;9708;53.114;9.388;2023-04-03T12:42:29;12.70;98.10
19152;DHT22;9708;53.114;9.388;2023-04-03T12:45:02;12.10;99.90
19152;DHT22;9708;53.114;9.388;2023-04-03T12:47:36;12.10;99.90
19152;DHT22;9708;53.114;9.388;2023-04-03T12:50:13;12.30;99.90
19152;DHT22;9708;53.114;9.388;2023-04-03T12:52:45;12.30;99.90
19152;DHT22;9708;53.114;9.388;2023-04-03T12:55:17;12.20;99.90
19152;DHT22;9708;53.114;9.388;2023-04-03T12:57:46;12.50;99.90
19152;DHT22;9708;53.114;9.388;2023-04-03T13:03:07;13.50;99.90
19152;DHT22;9708;53.114;9.388;2023-04-03T13:05:44;13.60;99.10
19152;DHT22;9708;53.114;9.388;2023-04-03T13:08:13;13.40;98.70
19152;DHT22;9708;53.114;9.388;2023-04-03T13:10:50;12.50;99.80
19152;DHT22;9708;53.114;9.388;2023-04-03T13:13:19;12.00;99.90
19152;DHT22;9708;53.114;9.388;2023-04-03T13:15:48;12.40;99.90
19152;DHT22;9708;53.114;9.388;2023-04-03T13:18:28;12.70;99.90
19152;DHT22;9708;53.114;9.388;2023-04-03T13:20:59;13.10;99.90
19152;DHT22;9708;53.114;9.388;2023-04-03T13:23:28;13.40;99.50
19152;DHT22;9708;53.114;9.388;2023-04-03T13:25:55;13.30;98.60
19152;DHT22;9708;53.114;9.388;2023-04-03T13:28:27;13.20;99.10
19152;DHT22;9708;53.114;9.388;2023-04-03T13:30:59;13.20;99.90
19152;DHT22;9708;53.114;9.388;2023-04-03T13:33:29;13.70;99.90
19152;DHT22;9708;53.114;9.388;2023-04-03T13:36:03;14.00;99.60
19152;DHT22;9708;53.114;9.388;2023-04-03T13:38:31;14.40;97.40
19152;DHT22;9708;53.114;9.388;2023-04-03T13:41:02;14.00;95.50
19152;DHT22;9708;53.114;9.388;2023-04-03T13:43:32;13.70;97.70
19152;DHT22;9708;53.114;9.388;2023-04-03T13:46:04;13.60;98.50
19152;DHT22;9708;53.114;9.388;2023-04-03T13:48:38;12.90;98.50
19152;DHT22;9708;53.114;9.388;2023-04-03T13:51:12;12.50;99.90
19152;DHT22;9708;53.114;9.388;2023-04-03T13:53:45;12.50;98.40
19152;DHT22;9708;53.114;9.388;2023-04-03T13:56:19;12.10;99.70
19152;DHT22;9708;53.114;9.388;2023-04-03T13:59:22;11.90;99.90
19152;DHT22;9708;53.114;9.388;2023-04-03T14:01:52;11.80;99.90
19152;DHT22;9708;53.114;9.388;2023-04-03T14:04:23;11.70;99.50
19152;DHT22;9708;53.114;9.388;2023-04-03T14:06:51;11.10;99.90
19152;DHT22;9708;53.114;9.388;2023-04-03T14:09:19;10.60;99.90
19152;DHT22;9708;53.114;9.388;2023-04-03T14:11:47;10.50;99.90
19152;DHT22;9708;53.114;9.388;2023-04-03T14:14:16;10.10;99.90
19152;DHT22;9708;53.114;9.388;2023-04-03T14:16:47;10.10;99.90
19152;DHT22;9708;53.114;9.388;2023-04-03T14:19:19;10.50;99.90
19152;DHT22;9708;53.114;9.388;2023-04-03T14:21:46;11.00;99.90
19152;DHT22;9708;53.114;9.388;2023-04-03T14:24:13;11.40;99.90
19152;DHT22;9708;53.114;9.388;2023-04-03T14:26:42;11.50;99.90
19152;DHT22;9708;53.114;9.388;2023-04-03T14:29:10;11.00;99.90
19152;DHT22;9708;53.114;9.388;2023-04-03T14:31:38;11.10;99.90
19152;DHT22;9708;53.114;9.388;2023-04-03T14:34:06;10.40;99.90
19152;DHT22;9708;53.114;9.388;2023-04-03T14:36:33;10.30;99.90
19152;DHT22;9708;53.114;9.388;2023-04-03T14:39:00;10.20;99.90
19152;DHT22;9708;53.114;9.388;2023-04-03T14:41:28;10.10;99.90
19152;DHT22;9708;53.114;9.388;2023-04-03T14:43:55;10.40;99.90
19152;DHT22;9708;53.114;9.388;2023-04-03T14:46:26;10.70;99.90
19152;DHT22;9708;53.114;9.388;2023-04-03T14:48:55;10.80;99.90
19152;DHT22;9708;53.114;9.388;2023-04-03T14:51:23;10.60;99.90
19152;DHT22;9708;53.114;9.388;2023-04-03T14:53:50;10.70;99.90
19152;DHT22;9708;53.114;9.388;2023-04-03T14:56:19;11.00;99.90
19152;DHT22;9708;53.114;9.388;2023-04-03T14:58:48;10.80;99.90
19152;DHT22;9708;53.114;9.388;2023-04-03T15:01:16;10.80;99.90
19152;DHT22;9708;53.114;9.388;2023-04-03T15:03:43;10.30;99.90
19152;DHT22;9708;53.114;9.388;2023-04-03T15:06:10;9.80;99.90
19152;DHT22;9708;53.114;9.388;2023-04-03T15:08:39;9.70;99.90
19152;DHT22;9708;53.114;9.388;2023-04-03T15:11:08;9.60;99.90
19152;DHT22;9708;53.114;9.388;2023-04-03T15:13:35;9.50;99.90
19152;DHT22;9708;53.114;9.388;2023-04-03T15:16:02;9.40;99.90
19152;DHT22;9708;53.114;9.388;2023-04-03T15:18:34;9.60;99.90
19152;DHT22;9708;53.114;9.388;2023-04-03T15:21:02;9.50;99.90
19152;DHT22;9708;53.114;9.388;2023-04-03T15:23:29;9.70;99.90
19152;DHT22;9708;53.114;9.388;2023-04-03T15:25:57;9.80;99.90
19152;DHT22;9708;53.114;9.388;2023-04-03T15:28:28;10.00;99.90
19152;DHT22;9708;53.114;9.388;2023-04-03T15:30:56;10.00;99.90
19152;DHT22;9708;53.114;9.388;2023-04-03T15:33:23;10.10;99.90
19152;DHT22;9708;53.114;9.388;2023-04-03T15:35:51;9.90;99.90
19152;DHT22;9708;53.114;9.388;2023-04-03T15:38:17;9.70;99.90
19152;DHT22;9708;53.114;9.388;2023-04-03T15:40:44;9.50;99.90
19152;DHT22;9708;53.114;9.388;2023-04-03T15:43:14;9.30;99.90
19152;DHT22;9708;53.114;9.388;2023-04-03T15:45:42;9.20;99.90
19152;DHT22;9708;53.114;9.388;2023-04-03T15:48:09;8.80;99.90
19152;DHT22;9708;53.114;9.388;2023-04-03T15:50:37;8.70;99.90
19152;DHT22;9708;53.114;9.388;2023-04-03T15:53:04;8.60;99.90
19152;DHT22;9708;53.114;9.388;2023-04-03T15:55:33;8.60;99.90
19152;DHT22;9708;53.114;9.388;2023-04-03T15:58:00;8.60;99.90
19152;DHT22;9708;53.114;9.388;2023-04-03T16:00:29;8.60;99.90
19152;DHT22;9708;53.114;9.388;2023-04-03T16:03:21;8.80;99.90
19152;DHT22;9708;53.114;9.388;2023-04-03T16:05:49;8.90;99.90
19152;DHT22;9708;53.114;9.388;2023-04-03T16:08:17;9.00;99.90
19152;DHT22;9708;53.114;9.388;2023-04-03T16:10:44;8.90;99.90
19152;DHT22;9708;53.114;9.388;2023-04-03T16:13:12;8.80;99.90
19152;DHT22;9708;53.114;9.388;2023-04-03T16:15:41;8.70;99.90
19152;DHT22;9708;53.114;9.388;2023-04-03T16:18:08;8.40;99.90
19152;DHT22;9708;53.114;9.388;2023-04-03T16:20:36;8.40;99.90
19152;DHT22;9708;53.114;9.388;2023-04-03T16:23:03;8.40;99.90
19152;DHT22;9708;53.114;9.388;2023-04-03T16:25:30;8.30;99.90
19152;DHT22;9708;53.114;9.388;2023-04-03T16:27:57;8.20;99.90
19152;DHT22;9708;53.114;9.388;2023-04-03T16:30:24;8.10;99.90